Time;durP1;ratioP1;P1;durP2;ratioP2;P2;SDS_P1;SDS_P2;PMS_P1;PMS_P2;Temp;Humidity;BMP_temperature;BMP_pressure;BME280_temperature;BME280_humidity;BME280_pressure;Samples;Min_cycle;Max_cycle;Signal;HPM_P1;HPM_P2
2022/04/12 00:00:30;;;;;;;20.55;3.17;;;11.80;99.90;;;;;;4973564;28;20049;-78
2022/04/12 00:02:56;;;;;;;16.92;2.63;;;11.80;99.90;;;;;;4973573;28;20030;-78
2022/04/12 00:05:22;;;;;;;15.00;2.78;;;11.80;99.90;;;;;;4956253;28;20387;-78
2022/04/12 00:07:47;;;;;;;17.73;2.45;;;11.80;99.90;;;;;;4973805;28;20015;-78
2022/04/12 00:10:14;;;;;;;17.25;2.78;;;11.80;99.90;;;;;;4973165;28;20514;-79
2022/04/12 00:12:40;;;;;;;11.77;2.40;;;11.80;99.90;;;;;;4974126;28;20022;-78
2022/04/12 00:15:08;;;;;;;21.80;2.58;;;11.80;99.90;;;;;;4973613;28;20027;-78
2022/04/12 00:20:20;;;;;;;11.23;3.05;;;11.80;99.90;;;;;;4973427;28;20038;-78
2022/04/12 00:22:46;;;;;;;14.85;2.42;;;11.90;99.90;;;;;;4973574;28;20383;-79
2022/04/12 00:25:12;;;;;;;20.00;3.15;;;11.80;99.90;;;;;;4973656;28;20455;-78
2022/04/12 00:27:40;;;;;;;12.73;2.47;;;11.80;99.90;;;;;;4973804;28;20026;-78
2022/04/12 00:30:08;;;;;;;17.83;3.30;;;11.80;99.90;;;;;;4973209;28;20409;-79
2022/04/12 00:32:34;;;;;;;17.73;2.63;;;11.80;99.90;;;;;;4973337;28;20486;-78
2022/04/12 00:35:00;;;;;;;18.33;3.55;;;11.80;99.90;;;;;;4973175;28;20034;-78
2022/04/12 00:37:26;;;;;;;14.35;2.42;;;11.80;99.90;;;;;;4973072;28;20019;-78
2022/04/12 00:39:52;;;;;;;24.00;3.28;;;11.80;99.90;;;;;;4973400;28;20114;-79
2022/04/12 00:42:18;;;;;;;18.42;2.63;;;11.70;99.90;;;;;;4973385;28;20166;-79
2022/04/12 00:44:44;;;;;;;12.77;2.45;;;11.80;99.90;;;;;;4975325;28;20458;-78
2022/04/12 00:47:10;;;;;;;12.88;3.10;;;11.70;99.90;;;;;;4959499;28;20450;-78
2022/04/12 00:49:35;;;;;;;21.65;3.03;;;11.70;99.90;;;;;;4959581;28;20022;-78
2022/04/12 00:52:02;;;;;;;9.23;2.00;;;11.70;99.90;;;;;;4959485;28;20069;-78
2022/04/12 00:54:28;;;;;;;28.23;2.75;;;11.80;99.90;;;;;;4976912;28;20495;-78
2022/04/12 00:56:54;;;;;;;17.02;3.00;;;11.70;99.90;;;;;;4976921;28;20066;-78
2022/04/12 00:59:21;;;;;;;11.75;2.40;;;11.70;99.90;;;;;;4958852;28;20078;-79
2022/04/12 01:01:47;;;;;;;15.40;2.50;;;11.70;99.90;;;;;;4976618;28;20495;-78
2022/04/12 01:04:13;;;;;;;16.88;2.25;;;11.70;99.90;;;;;;4976653;28;20035;-79
2022/04/12 01:06:38;;;;;;;15.65;2.80;;;11.70;99.90;;;;;;4976488;28;20035;-78
2022/04/12 01:09:05;;;;;;;13.27;2.03;;;11.70;99.90;;;;;;4976699;28;20026;-78
2022/04/12 01:11:34;;;;;;;15.13;2.42;;;11.70;99.90;;;;;;4976589;28;20027;-78
2022/04/12 01:14:01;;;;;;;21.58;3.63;;;11.70;99.90;;;;;;4976414;28;20023;-79
2022/04/12 01:16:27;;;;;;;13.35;2.20;;;11.70;99.90;;;;;;4976249;28;20022;-79
2022/04/12 01:18:52;;;;;;;12.00;2.33;;;11.70;99.90;;;;;;4976373;28;20030;-78
2022/04/12 01:21:19;;;;;;;14.93;2.53;;;11.70;99.90;;;;;;4976438;28;20031;-78
2022/04/12 01:23:57;;;;;;;14.95;2.50;;;11.70;99.90;;;;;;4976434;28;20034;-78
2022/04/12 01:26:22;;;;;;;14.70;2.50;;;11.70;99.90;;;;;;4976154;28;20022;-78
2022/04/12 01:28:48;;;;;;;16.50;2.80;;;11.70;99.90;;;;;;4975483;28;20368;-78
2022/04/12 01:31:14;;;;;;;23.40;3.70;;;11.70;99.90;;;;;;4976171;28;20550;-78
2022/04/12 01:33:39;;;;;;;12.98;2.53;;;11.70;99.90;;;;;;4976513;28;20019;-78
2022/04/12 01:36:05;;;;;;;13.55;2.13;;;11.70;99.90;;;;;;4976163;28;20037;-78
2022/04/12 01:38:31;;;;;;;14.93;2.22;;;11.80;99.90;;;;;;4975848;28;20027;-79
2022/04/12 01:40:57;;;;;;;9.77;1.80;;;11.70;99.90;;;;;;4975634;28;20405;-78
2022/04/12 01:43:22;;;;;;;17.95;3.28;;;11.80;99.90;;;;;;4975736;28;20030;-78
2022/04/12 01:45:48;;;;;;;14.77;2.22;;;11.70;99.90;;;;;;4976165;28;20419;-79
2022/04/12 01:48:14;;;;;;;18.17;2.92;;;11.80;99.90;;;;;;4975813;28;20533;-78
2022/04/12 01:50:39;;;;;;;11.18;1.92;;;11.80;99.90;;;;;;4958505;28;20479;-78
2022/04/12 01:53:05;;;;;;;18.17;2.92;;;11.80;99.90;;;;;;4975598;28;20031;-78
2022/04/12 01:55:31;;;;;;;12.70;4.10;;;11.70;99.90;;;;;;4975505;28;20034;-79
2022/04/12 01:57:57;;;;;;;9.20;2.13;;;11.70;99.90;;;;;;4975578;28;20447;-78
2022/04/12 02:00:22;;;;;;;18.73;2.58;;;11.80;99.90;;;;;;4975356;28;20379;-79
2022/04/12 02:02:48;;;;;;;13.98;2.35;;;11.80;99.90;;;;;;4975681;28;20372;-78
2022/04/12 02:05:14;;;;;;;17.38;2.45;;;11.80;99.90;;;;;;4975814;28;20037;-78
2022/04/12 02:07:43;;;;;;;23.70;3.58;;;11.70;99.90;;;;;;4975515;28;20015;-78
2022/04/12 02:10:09;;;;;;;24.90;3.15;;;11.80;99.90;;;;;;4975519;28;20098;-79
2022/04/12 02:12:35;;;;;;;13.65;2.70;;;11.80;99.90;;;;;;4975089;28;20046;-79
2022/04/12 02:15:02;;;;;;;10.85;2.35;;;11.80;99.90;;;;;;4975416;28;20062;-79
2022/04/12 02:17:28;;;;;;;27.80;3.10;;;11.80;99.90;;;;;;4975099;28;20491;-78
2022/04/12 02:19:53;;;;;;;13.02;2.38;;;11.80;99.90;;;;;;4975654;28;20041;-78
2022/04/12 02:22:19;;;;;;;15.82;2.03;;;11.80;99.90;;;;;;4975336;28;20031;-78
2022/04/12 02:24:45;;;;;;;14.38;2.58;;;11.80;99.90;;;;;;4957820;28;20484;-78
2022/04/12 02:27:10;;;;;;;17.67;2.40;;;11.80;99.90;;;;;;4975140;28;20529;-78
2022/04/12 02:29:36;;;;;;;12.30;2.42;;;11.80;99.90;;;;;;4975054;28;20379;-78
2022/04/12 02:32:02;;;;;;;19.90;3.33;;;11.80;99.90;;;;;;4975096;28;20027;-78
2022/04/12 02:34:28;;;;;;;15.57;3.30;;;11.70;99.90;;;;;;4975036;28;20035;-78
2022/04/12 02:36:53;;;;;;;19.60;3.08;;;11.70;99.90;;;;;;4975087;28;20027;-78
2022/04/12 02:39:19;;;;;;;17.08;2.75;;;11.70;99.90;;;;;;4974934;28;20065;-78
2022/04/12 02:41:45;;;;;;;23.95;2.95;;;11.70;99.90;;;;;;4974601;28;20390;-78
2022/04/12 02:44:10;;;;;;;15.60;1.88;;;11.70;99.90;;;;;;4974809;28;20050;-78
2022/04/12 02:46:36;;;;;;;25.95;2.90;;;11.70;99.90;;;;;;4975074;28;20026;-79
2022/04/12 02:49:01;;;;;;;15.63;2.28;;;11.70;99.90;;;;;;4974560;28;20093;-78
2022/04/12 02:51:27;;;;;;;10.77;1.67;;;11.70;99.90;;;;;;4974373;28;20101;-78
2022/04/12 02:53:53;;;;;;;26.65;3.33;;;11.70;99.90;;;;;;4974916;28;20034;-78
2022/04/12 02:56:18;;;;;;;20.98;2.72;;;11.70;99.90;;;;;;4956994;28;20482;-78
2022/04/12 02:58:44;;;;;;;22.13;3.45;;;11.70;99.90;;;;;;4974351;28;20117;-78
2022/04/12 03:01:10;;;;;;;21.58;2.65;;;11.70;99.90;;;;;;4974581;28;20415;-78
2022/04/12 03:03:35;;;;;;;13.80;2.30;;;11.70;99.90;;;;;;4974311;28;20081;-78
2022/04/12 03:06:01;;;;;;;24.48;3.10;;;11.70;99.90;;;;;;4956982;28;20106;-78
2022/04/12 03:08:27;;;;;;;17.25;2.80;;;11.70;99.90;;;;;;4974314;28;20026;-78
2022/04/12 03:10:52;;;;;;;12.23;3.65;;;11.60;99.90;;;;;;4974407;28;20034;-78
2022/04/12 03:13:18;;;;;;;20.65;3.00;;;11.70;99.90;;;;;;4957250;28;20627;-78
2022/04/12 03:15:44;;;;;;;20.88;2.92;;;11.60;99.90;;;;;;4956781;28;20038;-78
2022/04/12 03:18:10;;;;;;;15.23;3.08;;;11.60;99.90;;;;;;4974177;28;20066;-78
2022/04/12 03:20:36;;;;;;;13.07;2.10;;;11.60;99.90;;;;;;4974110;28;20027;-79
2022/04/12 03:23:02;;;;;;;21.08;3.58;;;11.70;99.90;;;;;;4974397;28;20035;-78
2022/04/12 03:25:27;;;;;;;16.75;2.85;;;11.60;99.90;;;;;;4974073;28;20115;-78
2022/04/12 03:27:53;;;;;;;25.63;3.60;;;11.60;99.90;;;;;;4974125;28;20044;-78
2022/04/12 03:30:19;;;;;;;14.57;2.03;;;11.70;99.90;;;;;;4974093;28;20098;-79
2022/04/12 03:32:44;;;;;;;15.13;2.40;;;11.60;99.90;;;;;;4973929;28;20034;-78
2022/04/12 03:35:10;;;;;;;20.80;2.78;;;11.60;99.90;;;;;;4974140;28;20546;-78
2022/04/12 03:37:36;;;;;;;14.38;2.40;;;11.60;99.90;;;;;;4956500;28;20113;-78
2022/04/12 03:40:02;;;;;;;23.38;2.92;;;11.60;99.90;;;;;;4974031;28;20088;-78
2022/04/12 03:42:28;;;;;;;14.07;2.70;;;11.60;99.90;;;;;;4973907;28;20027;-78
2022/04/12 03:44:54;;;;;;;19.90;3.13;;;11.60;99.90;;;;;;4973780;28;20050;-78
2022/04/12 03:47:20;;;;;;;18.58;2.70;;;11.60;99.90;;;;;;4974106;28;20482;-78
2022/04/12 03:49:45;;;;;;;17.10;2.92;;;11.60;99.90;;;;;;4973250;28;20042;-78
2022/04/12 03:52:11;;;;;;;11.27;2.58;;;11.60;99.90;;;;;;4973862;28;20038;-78
2022/04/12 03:54:37;;;;;;;14.35;2.60;;;11.70;99.90;;;;;;4973408;28;20027;-78
2022/04/12 03:57:03;;;;;;;18.15;3.85;;;11.60;99.90;;;;;;4973710;28;20046;-78
2022/04/12 03:59:29;;;;;;;16.30;3.45;;;11.70;99.90;;;;;;4973405;28;20051;-78
2022/04/12 04:01:54;;;;;;;18.40;4.35;;;11.70;99.90;;;;;;4972843;28;20035;-78
2022/04/12 04:04:20;;;;;;;17.77;3.17;;;11.70;99.90;;;;;;4972896;28;20102;-78
2022/04/12 04:06:46;;;;;;;14.07;2.33;;;11.70;99.90;;;;;;4972786;28;20031;-78
2022/04/12 04:09:12;;;;;;;19.85;2.67;;;11.70;99.90;;;;;;4955515;28;20030;-78
2022/04/12 04:11:38;;;;;;;15.73;2.78;;;11.70;99.90;;;;;;4972505;28;20034;-77
2022/04/12 04:14:09;;;;;;;18.30;2.90;;;11.70;99.90;;;;;;4972934;28;20027;-78
2022/04/12 04:16:35;;;;;;;16.92;2.78;;;11.70;99.90;;;;;;4972790;28;20110;-80
2022/04/12 04:19:00;;;;;;;14.98;2.60;;;11.70;99.90;;;;;;4973472;28;20046;-79
2022/04/12 04:21:26;;;;;;;14.90;2.28;;;11.70;99.90;;;;;;4976263;28;20035;-80
2022/04/12 04:23:52;;;;;;;14.63;3.08;;;11.70;99.90;;;;;;4975523;28;20026;-80
2022/04/12 04:26:17;;;;;;;16.92;2.70;;;11.80;99.90;;;;;;4976230;28;20023;-79
2022/04/12 04:28:44;;;;;;;18.63;2.97;;;11.70;99.90;;;;;;4975987;28;20383;-79
2022/04/12 04:31:10;;;;;;;10.52;2.13;;;11.70;99.90;;;;;;4976282;28;20030;-78
2022/04/12 04:33:36;;;;;;;19.80;2.97;;;11.70;99.90;;;;;;4971225;28;20031;-78
2022/04/12 04:36:02;;;;;;;21.58;2.78;;;11.70;99.90;;;;;;4976004;28;20037;-79
2022/04/12 04:38:28;;;;;;;16.27;3.28;;;11.70;99.90;;;;;;4975895;28;20395;-80
2022/04/12 04:40:54;;;;;;;17.35;4.07;;;11.80;99.90;;;;;;4962353;28;20031;-79
2022/04/12 04:43:19;;;;;;;23.02;3.08;;;11.80;99.90;;;;;;4970432;28;20110;-86
2022/04/12 04:45:45;;;;;;;17.70;2.80;;;11.80;99.90;;;;;;4939222;29;20480;-82
2022/04/12 04:48:11;;;;;;;14.80;2.28;;;11.80;99.90;;;;;;4956526;29;20103;-80
2022/04/12 04:50:37;;;;;;;20.95;3.38;;;11.80;99.90;;;;;;4956479;29;20078;-79
2022/04/12 04:53:05;;;;;;;23.90;3.85;;;11.80;99.90;;;;;;4956281;29;20034;-79
2022/04/12 04:55:35;;;;;;;17.10;2.30;;;11.70;99.90;;;;;;4956145;29;20079;-81
2022/04/12 04:58:02;;;;;;;20.58;2.85;;;11.80;99.90;;;;;;4962000;28;20037;-78
2022/04/12 05:00:32;;;;;;;18.48;3.00;;;11.70;99.90;;;;;;4912981;28;1455916;-85
2022/04/12 05:02:58;;;;;;;16.45;3.10;;;11.70;99.90;;;;;;4957016;28;20062;-81
2022/04/12 05:05:25;;;;;;;24.13;3.38;;;11.70;99.90;;;;;;4959419;28;20027;-80
2022/04/12 05:07:53;;;;;;;24.63;3.38;;;11.70;99.90;;;;;;4975905;28;20019;-81
2022/04/12 05:10:28;;;;;;;19.33;2.55;;;11.70;99.90;;;;;;4976595;28;20042;-78
2022/04/12 05:12:55;;;;;;;20.88;2.45;;;11.60;99.90;;;;;;4976373;28;20114;-76
2022/04/12 05:15:21;;;;;;;16.45;2.95;;;11.60;99.90;;;;;;4963919;28;20460;-78
2022/04/12 05:17:51;;;;;;;23.88;3.15;;;11.60;99.90;;;;;;4952581;28;20057;-78
2022/04/12 07:44:43;;;;;;;13.52;2.60;;;12.50;99.90;;;;;;5186161;23;20046;-80
2022/04/12 07:47:08;;;;;;;16.35;2.53;;;12.60;99.90;;;;;;4970014;28;20034;-79
2022/04/12 07:49:34;;;;;;;21.80;2.92;;;12.60;99.90;;;;;;4989288;28;20029;-79
2022/04/12 07:52:00;;;;;;;14.27;2.50;;;12.60;99.90;;;;;;4992583;28;20120;-78
2022/04/12 07:54:25;;;;;;;17.85;2.50;;;12.60;99.90;;;;;;4973338;28;20026;-81
2022/04/12 07:56:51;;;;;;;12.10;2.03;;;12.70;99.90;;;;;;4973876;28;20035;-78
2022/04/12 07:59:17;;;;;;;15.00;2.40;;;12.70;99.90;;;;;;4985816;28;20037;-79
2022/04/12 08:01:43;;;;;;;17.30;3.22;;;12.80;99.90;;;;;;4992791;28;20030;-79
2022/04/12 08:04:09;;;;;;;19.67;2.95;;;12.90;99.90;;;;;;4993014;28;20022;-79
2022/04/12 10:34:09;;;;;;;16.52;2.75;;;15.70;99.90;;;;;;4953596;29;20097;-82
2022/04/12 10:37:14;;;;;;;15.98;2.53;;;16.00;99.90;;;;;;4955580;29;20058;-81
2022/04/12 10:40:04;;;;;;;10.13;2.47;;;16.00;99.90;;;;;;4913609;29;20115;-80
2022/04/12 10:42:34;;;;;;;15.55;2.53;;;16.10;99.90;;;;;;4914616;29;20110;-80
2022/04/12 10:45:03;;;;;;;15.32;3.60;;;16.40;99.90;;;;;;4915345;29;20132;-80
2022/04/12 10:47:34;;;;;;;14.27;3.13;;;16.50;99.90;;;;;;4914845;29;20032;-80
2022/04/12 10:50:03;;;;;;;15.13;2.80;;;16.60;99.90;;;;;;4898717;29;20024;-81
2022/04/12 10:52:46;;;;;;;15.68;3.13;;;16.20;99.90;;;;;;4914674;29;20272;-80
2022/04/12 10:55:23;;;;;;;18.27;3.70;;;16.40;99.90;;;;;;4914881;29;20032;-80
2022/04/12 10:57:51;;;;;;;15.52;3.10;;;16.60;99.90;;;;;;4914902;29;20064;-80
2022/04/12 11:00:19;;;;;;;20.50;3.20;;;16.10;99.90;;;;;;4915205;29;20028;-80
2022/04/12 11:02:56;;;;;;;15.77;3.63;;;16.20;99.90;;;;;;4898335;29;20063;-80
2022/04/12 11:05:37;;;;;;;17.88;3.50;;;16.30;99.90;;;;;;4914752;29;20028;-80
2022/04/12 11:08:14;;;;;;;13.20;2.67;;;16.20;99.90;;;;;;4914777;29;20069;-80
2022/04/12 11:11:04;;;;;;;11.50;2.70;;;16.50;99.90;;;;;;4939592;29;20031;-80
2022/04/12 11:13:34;;;;;;;15.07;3.20;;;16.50;99.90;;;;;;4898878;29;20175;-80
2022/04/12 11:16:01;;;;;;;14.30;2.85;;;16.70;99.90;;;;;;4898921;29;20063;-80
2022/04/12 11:18:45;;;;;;;18.15;3.15;;;16.50;99.90;;;;;;4898894;29;20051;-80
2022/04/12 11:21:10;;;;;;;24.85;3.60;;;16.20;99.90;;;;;;4914041;29;20445;-80
2022/04/12 14:30:23;;;;;;;21.03;4.50;;;15.50;99.90;;;;;;6076346;23;20089;31
2022/04/12 14:32:49;;;;;;;22.95;4.78;;;15.40;99.90;;;;;;4895553;29;20051;-79
2022/04/12 14:35:15;;;;;;;18.50;4.25;;;15.30;99.90;;;;;;4898627;29;20032;-79
2022/04/12 14:37:40;;;;;;;21.83;4.00;;;15.10;99.90;;;;;;4898895;29;20032;-79
2022/04/12 14:40:07;;;;;;;25.25;4.00;;;15.20;99.90;;;;;;4898617;29;20099;-79
2022/04/12 14:42:32;;;;;;;26.02;4.65;;;15.20;99.90;;;;;;4898669;29;20036;-79
2022/04/12 14:44:58;;;;;;;26.63;4.13;;;15.00;99.90;;;;;;4898613;29;20028;-79
2022/04/12 14:47:24;;;;;;;21.73;3.78;;;14.90;99.90;;;;;;4881594;29;20029;-81
2022/04/12 14:49:49;;;;;;;20.05;3.53;;;14.90;99.90;;;;;;4898483;29;20071;-80
2022/04/12 14:52:16;;;;;;;23.17;3.97;;;14.90;99.90;;;;;;4916522;29;20103;-80
2022/04/12 14:54:42;;;;;;;13.68;3.10;;;14.80;99.90;;;;;;4911965;29;20063;-79
2022/04/12 14:57:08;;;;;;;20.38;4.68;;;15.00;99.90;;;;;;4897084;29;20414;-80
2022/04/12 14:59:34;;;;;;;21.63;3.85;;;15.00;99.90;;;;;;4881470;29;20029;-78
2022/04/12 15:02:00;;;;;;;18.13;3.15;;;15.00;99.90;;;;;;4897260;29;20118;-78
2022/04/12 15:04:25;;;;;;;16.95;3.42;;;15.00;99.90;;;;;;4897970;29;20029;-78
2022/04/12 15:06:51;;;;;;;23.92;3.90;;;15.00;99.90;;;;;;4881387;29;20032;-78
2022/04/12 15:09:17;;;;;;;27.70;3.22;;;15.20;99.90;;;;;;4881424;29;20116;-78
2022/04/12 15:11:43;;;;;;;25.75;3.83;;;15.20;99.90;;;;;;4896966;29;20401;-74
2022/04/12 15:14:08;;;;;;;25.33;3.50;;;15.30;99.90;;;;;;4897902;29;20033;-73
2022/04/12 15:16:36;;;;;;;21.33;4.03;;;15.30;99.90;;;;;;4897565;29;20489;-74
2022/04/12 15:19:02;;;;;;;15.13;3.10;;;15.20;99.90;;;;;;4906085;29;20107;-74
2022/04/12 15:21:27;;;;;;;21.80;3.13;;;15.20;99.90;;;;;;4909650;29;20067;-74
2022/04/12 15:23:53;;;;;;;28.50;4.10;;;15.20;99.90;;;;;;4898025;29;20052;-74
2022/04/12 15:26:19;;;;;;;19.70;4.03;;;15.30;99.90;;;;;;4899754;29;20029;-74
2022/04/12 15:28:45;;;;;;;17.88;3.88;;;15.40;99.90;;;;;;4903953;29;20084;-74
2022/04/12 15:31:11;;;;;;;21.25;4.22;;;15.20;99.90;;;;;;4905214;29;20419;-74
2022/04/12 15:33:36;;;;;;;16.55;2.95;;;15.20;99.90;;;;;;4916582;29;20056;-74
2022/04/12 15:36:03;;;;;;;18.08;3.00;;;15.00;99.90;;;;;;4916274;29;20060;-74
2022/04/12 15:38:29;;;;;;;14.45;2.80;;;14.80;99.90;;;;;;4916432;29;20079;-75
2022/04/12 15:40:55;;;;;;;20.20;3.53;;;14.70;99.90;;;;;;4916717;29;20032;-75
2022/04/12 15:43:21;;;;;;;13.35;3.30;;;14.80;99.90;;;;;;4915917;29;20030;-74
2022/04/12 15:45:47;;;;;;;22.55;3.45;;;14.90;99.90;;;;;;4916219;29;20073;-74
2022/04/12 15:48:13;;;;;;;27.58;3.35;;;15.10;99.90;;;;;;4916419;29;20492;-77
2022/04/12 15:50:39;;;;;;;24.88;3.33;;;15.10;99.90;;;;;;4916444;29;20052;-75
2022/04/12 15:53:06;;;;;;;20.73;3.40;;;15.20;99.90;;;;;;4916409;29;20032;-76
2022/04/12 15:55:31;;;;;;;17.75;3.03;;;15.00;99.90;;;;;;4916304;29;20060;-76
2022/04/12 15:58:08;;;;;;;18.90;2.80;;;14.80;99.90;;;;;;4915868;29;20056;-74
2022/04/12 16:00:34;;;;;;;12.75;2.60;;;14.80;99.90;;;;;;4916600;29;20063;-82
2022/04/12 16:03:02;;;;;;;17.98;3.50;;;14.40;99.90;;;;;;4915518;29;20028;-79
2022/04/12 16:05:27;;;;;;;19.80;3.58;;;14.40;99.90;;;;;;4898321;29;20111;-80
2022/04/12 16:07:56;;;;;;;17.95;3.50;;;14.40;99.90;;;;;;4916374;29;20103;-80
2022/04/12 16:10:28;;;;;;;20.50;3.40;;;14.40;99.90;;;;;;4915032;29;20035;-80
2022/04/12 16:12:54;;;;;;;27.92;4.68;;;14.30;99.90;;;;;;4915821;29;20020;-82
2022/04/12 16:15:20;;;;;;;20.98;3.15;;;14.20;99.90;;;;;;4919416;29;20039;-85
2022/04/12 16:17:46;;;;;;;15.18;3.13;;;14.10;99.90;;;;;;4903140;29;20526;-82
2022/04/12 16:20:11;;;;;;;11.10;2.40;;;14.20;99.90;;;;;;4920120;29;20031;-81
2022/04/12 16:22:37;;;;;;;21.08;3.05;;;14.30;99.90;;;;;;4920074;29;20036;-78
2022/04/12 16:25:03;;;;;;;17.17;2.97;;;14.10;99.90;;;;;;4920080;29;20037;-77
2022/04/12 16:27:29;;;;;;;18.73;3.28;;;14.00;99.90;;;;;;4919930;29;20066;-78
2022/04/12 16:29:56;;;;;;;13.35;2.40;;;13.90;99.90;;;;;;4902834;29;20104;-81
2022/04/12 16:32:25;;;;;;;17.50;3.08;;;13.90;99.90;;;;;;4919445;29;20580;-79
2022/04/12 16:34:51;;;;;;;17.50;2.97;;;13.80;99.90;;;;;;4919797;29;20492;-78
2022/04/12 16:37:17;;;;;;;21.23;4.22;;;13.80;99.90;;;;;;4919522;29;20034;-82
2022/04/12 16:39:43;;;;;;;21.52;3.03;;;13.80;99.90;;;;;;4920176;29;20043;-79
2022/04/12 16:42:09;;;;;;;17.58;2.97;;;13.80;99.90;;;;;;4902152;29;20040;-81
2022/04/12 16:44:35;;;;;;;22.25;3.90;;;13.70;99.90;;;;;;4902591;29;20101;-79
2022/04/12 16:47:01;;;;;;;21.63;5.72;;;13.70;99.90;;;;;;4919535;29;20025;-78
2022/04/12 16:49:27;;;;;;;16.67;3.20;;;13.90;99.90;;;;;;4902382;29;20444;-78
2022/04/12 16:51:52;;;;;;;20.70;3.90;;;13.80;99.90;;;;;;4902666;29;20036;-81
2022/04/12 16:54:18;;;;;;;18.52;3.92;;;13.70;99.90;;;;;;4919431;29;20040;-80
2022/04/12 16:56:45;;;;;;;17.08;3.10;;;13.70;99.90;;;;;;4902270;29;20127;-81
2022/04/12 16:59:11;;;;;;;15.70;3.20;;;13.50;99.90;;;;;;4919173;29;20028;-79
2022/04/12 17:01:37;;;;;;;14.38;3.20;;;13.50;99.90;;;;;;4901844;29;20051;-79
2022/04/12 17:04:02;;;;;;;12.32;2.53;;;13.50;99.90;;;;;;4918504;29;20032;-80
2022/04/12 17:06:28;;;;;;;15.50;2.78;;;13.50;99.90;;;;;;4918555;29;20024;-81
2022/04/12 17:08:54;;;;;;;18.27;3.30;;;13.50;99.90;;;;;;4919190;29;20029;-79
2022/04/12 17:11:20;;;;;;;18.05;2.45;;;13.50;99.90;;;;;;4917887;29;20020;-80
2022/04/12 17:13:46;;;;;;;11.90;2.03;;;13.60;99.90;;;;;;4912055;29;20055;-79
2022/04/12 17:16:12;;;;;;;13.93;3.17;;;13.60;99.90;;;;;;4915222;29;20066;-79
2022/04/12 17:18:38;;;;;;;10.93;2.47;;;13.60;99.90;;;;;;4916429;29;20031;-79
2022/04/12 17:21:04;;;;;;;12.70;2.28;;;13.60;99.90;;;;;;4917649;29;20080;-79
2022/04/12 17:23:30;;;;;;;11.85;3.03;;;13.60;99.90;;;;;;4899511;29;20031;-79
2022/04/12 17:25:56;;;;;;;17.23;2.97;;;13.60;99.90;;;;;;4916652;29;20052;-80
2022/04/12 17:28:21;;;;;;;14.57;2.53;;;13.50;99.90;;;;;;4917166;29;20063;-80
2022/04/12 17:30:47;;;;;;;14.13;2.65;;;13.50;99.90;;;;;;4916890;29;20044;-81
2022/04/12 17:33:13;;;;;;;13.57;3.15;;;13.40;99.90;;;;;;4917006;29;20028;-80
2022/04/12 17:35:39;;;;;;;13.82;2.30;;;13.40;99.90;;;;;;4916475;29;20120;-81
2022/04/12 17:38:08;;;;;;;13.98;3.08;;;13.40;99.90;;;;;;4917686;29;20392;-79
2022/04/12 17:40:34;;;;;;;10.68;2.53;;;13.40;99.90;;;;;;4893070;29;20036;-80
2022/04/12 17:43:00;;;;;;;13.02;2.70;;;13.40;99.90;;;;;;4916741;29;20035;-79
2022/04/12 17:45:25;;;;;;;12.48;1.98;;;13.40;99.90;;;;;;4916469;29;20024;-81
2022/04/12 17:47:51;;;;;;;15.27;2.47;;;13.30;99.90;;;;;;4917605;29;20108;-79
2022/04/12 17:50:17;;;;;;;13.20;2.70;;;13.30;99.90;;;;;;4900091;29;20036;-82
2022/04/12 17:52:43;;;;;;;17.20;2.55;;;13.30;99.90;;;;;;4916659;29;20050;-82
2022/04/12 17:55:08;;;;;;;9.35;1.85;;;13.20;99.90;;;;;;4917438;29;20032;-81
2022/04/12 17:57:34;;;;;;;13.93;2.35;;;13.20;99.90;;;;;;4916801;29;20087;-80
2022/04/12 18:00:00;;;;;;;17.30;2.67;;;13.20;99.90;;;;;;4917244;29;20028;-80
2022/04/12 18:02:26;;;;;;;11.77;2.42;;;13.10;99.90;;;;;;4916989;29;20024;-81
2022/04/12 18:05:02;;;;;;;10.02;1.80;;;13.10;99.90;;;;;;4916956;29;20055;-81
2022/04/12 18:07:28;;;;;;;15.02;2.58;;;13.10;99.90;;;;;;4917650;29;20098;-80
2022/04/12 18:09:54;;;;;;;14.10;2.35;;;13.10;99.90;;;;;;4915673;29;20020;-78
2022/04/12 18:12:21;;;;;;;9.10;2.22;;;13.10;99.90;;;;;;4917671;29;20024;-81
2022/04/12 18:14:47;;;;;;;8.55;1.90;;;13.10;99.90;;;;;;4917044;29;20012;-81
2022/04/12 18:17:13;;;;;;;14.75;2.45;;;13.10;99.90;;;;;;4916645;29;20032;-78
2022/04/12 18:19:40;;;;;;;12.93;2.70;;;13.10;99.90;;;;;;4918036;29;20511;-78
2022/04/12 18:22:06;;;;;;;8.27;2.20;;;13.10;99.90;;;;;;4918081;29;20028;-78
2022/04/12 18:24:32;;;;;;;11.07;2.00;;;13.10;99.90;;;;;;4899948;29;20111;-78
2022/04/12 18:26:58;;;;;;;9.27;2.45;;;13.00;99.90;;;;;;4916944;29;20140;-78
2022/04/12 18:29:24;;;;;;;10.23;1.70;;;13.10;99.90;;;;;;4917480;29;20383;-79
2022/04/12 18:31:50;;;;;;;11.88;2.28;;;13.10;99.90;;;;;;4916341;29;20108;-78
2022/04/12 18:34:16;;;;;;;9.32;2.00;;;13.00;99.90;;;;;;4915865;29;20024;-78
2022/04/12 18:36:42;;;;;;;8.02;1.98;;;13.00;99.90;;;;;;4916699;29;20075;-78
2022/04/12 18:39:07;;;;;;;10.23;1.60;;;13.00;99.90;;;;;;4916804;29;20076;-78
2022/04/12 18:41:33;;;;;;;9.85;2.17;;;13.00;99.90;;;;;;4916899;29;20088;-78
2022/04/12 18:43:59;;;;;;;11.05;2.30;;;13.00;99.90;;;;;;4916836;29;20392;-78
2022/04/12 18:46:26;;;;;;;14.70;2.15;;;13.00;99.90;;;;;;4917021;29;20024;-78
2022/04/12 18:48:52;;;;;;;11.38;2.13;;;13.00;99.90;;;;;;4916699;29;20503;-78
2022/04/12 18:51:19;;;;;;;10.52;2.10;;;13.00;99.90;;;;;;4917148;29;20036;-77
2022/04/12 18:53:44;;;;;;;13.80;2.38;;;12.90;99.90;;;;;;4915881;29;20038;-78
2022/04/12 18:56:11;;;;;;;12.13;2.75;;;12.90;99.90;;;;;;4915548;29;20028;-78
2022/04/12 18:58:37;;;;;;;18.15;2.88;;;12.90;99.90;;;;;;4917062;29;20020;-78
2022/04/12 19:01:03;;;;;;;13.73;2.15;;;12.90;99.90;;;;;;4915133;29;20399;-78
2022/04/12 19:03:29;;;;;;;15.45;2.65;;;12.80;99.90;;;;;;4916990;29;20028;-78
2022/04/12 19:05:55;;;;;;;13.90;2.38;;;12.90;99.90;;;;;;4916812;29;20100;-79
2022/04/12 19:08:21;;;;;;;20.02;2.92;;;12.90;99.90;;;;;;4899305;29;20024;-78
2022/04/12 19:10:47;;;;;;;13.35;2.80;;;12.80;99.90;;;;;;4916538;29;20036;-79
2022/04/12 19:13:12;;;;;;;14.60;2.58;;;12.80;99.90;;;;;;4915909;29;20111;-78
2022/04/12 19:15:41;;;;;;;10.13;2.58;;;12.80;99.90;;;;;;4916065;29;20036;-77
2022/04/12 19:18:08;;;;;;;14.23;3.40;;;12.90;99.90;;;;;;4916579;29;20024;-78
2022/04/12 19:20:34;;;;;;;12.98;2.30;;;12.80;99.90;;;;;;4900287;29;20036;-78
2022/04/12 19:22:59;;;;;;;17.60;3.13;;;12.70;99.90;;;;;;4915554;29;20107;-78
2022/04/12 19:25:27;;;;;;;11.00;2.85;;;12.80;99.90;;;;;;4916497;29;20031;-77
2022/04/12 19:27:54;;;;;;;12.48;3.05;;;12.80;99.90;;;;;;4917302;29;20024;-78
2022/04/12 19:30:19;;;;;;;20.15;3.63;;;12.80;99.90;;;;;;4916102;29;20024;-77
2022/04/12 19:32:46;;;;;;;13.13;2.90;;;12.80;99.90;;;;;;4916557;29;20031;-77
2022/04/12 19:35:14;;;;;;;24.05;3.60;;;12.70;99.90;;;;;;4914621;29;20807;-77
2022/04/12 19:37:40;;;;;;;25.65;4.80;;;12.80;99.90;;;;;;4913694;29;20094;-79
2022/04/12 19:40:06;;;;;;;16.17;3.20;;;12.70;99.90;;;;;;4916297;29;20497;-79
2022/04/12 19:42:32;;;;;;;25.95;3.72;;;12.70;99.90;;;;;;4914759;29;20404;-77
2022/04/12 19:44:58;;;;;;;11.68;3.13;;;12.70;99.90;;;;;;4916633;29;20028;-77
2022/04/12 19:47:23;;;;;;;13.63;3.15;;;12.70;99.90;;;;;;4916541;29;20515;-78
2022/04/12 19:49:49;;;;;;;17.30;3.17;;;12.70;99.90;;;;;;4916313;29;20059;-77
2022/04/12 19:52:16;;;;;;;14.18;3.10;;;12.70;99.90;;;;;;4916128;29;20412;-81
2022/04/12 19:54:42;;;;;;;16.75;2.85;;;12.70;99.90;;;;;;4898680;29;20107;-78
2022/04/12 19:57:08;;;;;;;15.35;2.70;;;12.70;99.90;;;;;;4916261;29;20532;-78
2022/04/12 19:59:35;;;;;;;22.08;2.90;;;12.70;99.90;;;;;;4916808;29;20380;-78
2022/04/12 20:02:01;;;;;;;15.05;2.95;;;12.70;99.90;;;;;;4899539;29;20039;-77
2022/04/12 20:04:26;;;;;;;12.10;2.83;;;12.70;99.90;;;;;;4916538;29;20028;-77
2022/04/12 20:06:52;;;;;;;9.05;2.40;;;12.70;99.90;;;;;;4916577;29;20035;-78
2022/04/12 20:09:18;;;;;;;15.93;3.33;;;12.70;99.90;;;;;;4898751;29;20145;-77
2022/04/12 20:11:44;;;;;;;12.43;2.08;;;12.70;99.90;;;;;;4916292;29;20070;-78
2022/04/12 20:14:10;;;;;;;12.45;2.65;;;12.70;99.90;;;;;;4915405;29;20047;-77
2022/04/12 20:16:35;;;;;;;15.15;2.42;;;12.70;99.90;;;;;;4916296;29;20028;-78
2022/04/12 20:19:02;;;;;;;11.70;2.78;;;12.70;99.90;;;;;;4915389;29;20060;-78
2022/04/12 20:21:27;;;;;;;9.45;2.30;;;12.70;99.90;;;;;;4916702;29;20361;-79
2022/04/12 20:23:54;;;;;;;13.55;2.75;;;12.70;99.90;;;;;;4916193;29;20038;-77
2022/04/12 20:26:20;;;;;;;14.30;2.70;;;12.70;99.90;;;;;;4916080;29;20396;-78
2022/04/12 20:28:45;;;;;;;11.18;2.10;;;12.70;99.90;;;;;;4915876;29;20484;-77
2022/04/12 20:31:13;;;;;;;17.13;2.60;;;12.70;99.90;;;;;;4915617;29;20044;-77
2022/04/12 20:33:41;;;;;;;12.20;2.58;;;12.60;99.90;;;;;;4914888;29;20024;-78
2022/04/12 20:36:07;;;;;;;10.52;2.13;;;12.70;99.90;;;;;;4915949;29;20039;-78